Latest Weather Observations for McArthur River Mine

IDD60801

Issued at 4:21 pm CST Sunday 23 September 2018 (issued every 10 minutes, with the page automatically refreshed every 10 minutes)

About weather observations | Map of weather stations | Latest weather observations for NT | Other Formats
Station Details ID: 014704 Name: MCARTHUR RIVER MINE AIRPORT Lat: -16.44 Lon: 136.08 Height: 40.0 m
Data from the previous 72 hours. | See also: Recent months at McArthur River Mine
Date/Time
CST
Temp
°C
App
Temp
°C
Dew
Point
°C
Rel
Hum
%
Delta-T
°C
Wind Press
QNH
hPa
Press
MSL
hPa
Rain since
9am
mm
Dir  Spd
km/h
Gust
km/h
Spd
kts
Gust
kts
23/04:00pm 37.3 32.9 0.6 10 18.6 ENE 13 20 7 11 1011.5 1011.3 0.0
23/03:30pm 36.9 32.9 0.3 10 18.4 SE 11 20 6 11 1012.0 1011.8 0.0
23/03:00pm 37.1 32.2 1.8 11 18.2 SE 17 32 9 17 1012.5 1012.3 0.0
23/02:30pm 36.0 30.7 2.1 12 17.4 SSE 19 26 10 14 1012.9 1012.7 0.0
23/02:00pm 36.5 32.1 2.5 12 17.7 ENE 15 30 8 16 1013.3 1013.1 0.0
23/01:30pm 37.1 32.4 3.0 12 17.9 ESE 17 28 9 15 1013.8 1013.6 0.0
23/01:00pm 35.9 32.3 3.2 13 17.1 ESE 11 32 6 17 1014.4 1014.2 0.0
23/12:30pm 36.1 32.6 3.3 13 17.2 E 11 22 6 12 1014.9 1014.7 0.0
23/12:00pm 35.6 31.1 4.0 14 16.7 ESE 17 26 9 14 1015.6 1015.4 0.0
23/11:30am 35.0 30.7 3.5 14 16.5 E 15 24 8 13 1016.1 1015.9 0.0
23/11:00am 34.0 28.7 1.7 13 16.3 SE 19 32 10 17 1016.7 1016.5 0.0
23/10:30am 33.1 27.8 3.0 15 15.4 ESE 20 28 11 15 1017.1 1016.9 0.0
23/10:00am 32.1 27.1 1.3 14 15.3 ESE 17 22 9 12 1017.4 1017.2 0.0
23/09:30am 30.4 26.4 2.6 17 13.9 SSE 13 19 7 10 1017.5 1017.3 0.0
23/09:00am 29.2 24.9 0.8 16 13.7 SSE 13 17 7 9 1017.5 1017.3 0.0
23/08:30am 27.2 23.4 1.6 19 12.3 SSE 11 17 6 9 1017.3 1017.1 0.0
23/08:00am 24.2 23.7 12.8 49 6.6 SSW 7 11 4 6 1017.0 1016.8 0.0
23/07:30am 21.8 22.6 17.4 76 2.7 SW 9 11 5 6 1016.9 1016.7 0.0
23/07:00am 19.0 20.5 17.5 91 0.9 SW 6 7 3 4 1016.7 1016.5 0.0
23/06:30am 18.5 20.0 17.5 94 0.6 SW 6 7 3 4 1016.4 1016.2 0.0
23/06:00am 18.6 19.8 17.4 93 0.7 SW 7 9 4 5 1016.0 1015.8 0.0
23/05:30am 18.8 19.8 17.8 94 0.6 WSW 9 11 5 6 1015.8 1015.6 0.0
23/05:00am 18.8 20.1 17.6 93 0.7 WSW 7 9 4 5 1015.6 1015.4 0.0
23/04:30am 18.9 20.2 17.6 92 0.8 WSW 7 9 4 5 1015.5 1015.3 0.0
23/04:00am 19.1 20.7 17.8 92 0.8 WSW 6 7 3 4 1015.5 1015.3 0.0
23/03:30am 19.3 20.9 17.8 91 0.9 W 6 6 3 3 1015.6 1015.4 0.0
23/03:00am 19.3 20.5 16.9 86 1.5 WSW 6 11 3 6 1015.5 1015.3 0.0
23/02:30am 20.2 22.5 17.8 86 1.5 WSW 2 6 1 3 1015.8 1015.6 0.0
23/02:00am 20.5 21.8 17.5 83 1.8 SW 7 9 4 5 1016.2 1016.0 0.0
23/01:30am 21.2 23.0 18.2 83 1.9 SW 6 7 3 4 1016.6 1016.4 0.0
23/01:00am 21.6 24.6 18.4 82 2.0 CALM 0 0 0 0 1016.9 1016.7 0.0
23/12:30am 22.9 25.1 19.3 80 2.3 E 6 7 3 4 1017.2 1017.0 0.0
23/12:00am 23.2 26.5 19.2 78 2.5 CALM 0 6 0 3 1017.4 1017.2 0.0
 
Date/Time
CST
Temp
°C
App
Temp
°C
Dew
Point
°C
Rel
Hum
%
Delta-T
°C
Wind Press
QNH
hPa
Press
MSL
hPa
Rain since
9am
mm
Dir  Spd
km/h
Gust
km/h
Spd
kts
Gust
kts
22/11:30pm 23.9 26.1 19.2 75 3.0 E 6 7 3 4 1017.6 1017.4 0.0
22/11:00pm 24.5 26.2 20.2 77 2.8 NE 11 15 6 8 1017.3 1017.1 0.0
22/10:30pm 24.7 26.6 19.8 74 3.2 NE 9 13 5 7 1017.3 1017.1 0.0
22/10:00pm 25.1 27.0 19.7 72 3.5 NE 9 13 5 7 1017.1 1016.9 0.0
22/09:30pm 25.4 27.2 19.5 70 3.8 NE 9 17 5 9 1016.9 1016.7 0.0
22/09:00pm 25.9 27.2 19.3 67 4.2 NE 11 19 6 10 1016.8 1016.6 0.0
22/08:30pm 26.5 26.7 19.4 65 4.6 NE 17 24 9 13 1016.4 1016.2 0.0
22/08:00pm 27.0 27.3 18.8 60 5.3 NE 15 24 8 13 1016.0 1015.8 0.0
22/07:30pm 27.7 27.2 16.9 51 6.7 NE 15 22 8 12 1015.5 1015.3 0.0
22/07:00pm 28.5 27.2 15.8 46 7.8 NNE 17 26 9 14 1015.0 1014.8 0.0
22/06:30pm 29.7 27.4 14.7 40 9.1 NNE 20 35 11 19 1014.3 1014.1 0.0
22/06:00pm 31.2 28.5 13.5 34 10.6 NE 20 28 11 15 1013.9 1013.7 0.0
22/05:30pm 32.8 29.2 11.9 28 12.3 NE 22 33 12 18 1013.4 1013.2 0.0
22/05:00pm 36.8 32.1 -4.6 7 19.2 ESE 11 17 6 9 1012.9 1012.7 0.0
22/04:30pm 37.4 32.0 -4.2 7 19.6 E 15 30 8 16 1012.8 1012.6 0.0
22/04:00pm 37.0 32.4 -4.4 7 19.3 ESE 11 22 6 12 1012.9 1012.7 0.0
22/03:30pm 36.9 31.5 -4.5 7 19.3 ESE 15 30 8 16 1013.1 1012.9 0.0
22/03:00pm 36.5 31.4 -4.8 7 19.1 E 13 26 7 14 1013.4 1013.2 0.0
22/02:30pm 36.9 31.5 -4.5 7 19.3 E 15 24 8 13 1013.8 1013.6 0.0
22/02:00pm 36.9 31.7 -6.5 6 19.6 E 13 22 7 12 1014.3 1014.1 0.0
22/01:30pm 36.6 31.1 -9.1 5 19.7 ESE 13 22 7 12 1015.0 1014.8 0.0
22/01:00pm 36.0 29.9 -12.3 4 19.7 E 15 22 8 12 1015.6 1015.4 0.0
22/12:30pm 35.0 28.9 -13.0 4 19.2 E 15 24 8 13 1016.2 1016.0 0.0
22/12:00pm 35.5 29.0 -12.6 4 19.5 E 17 28 9 15 1016.8 1016.6 0.0
22/11:30am 34.5 28.0 -13.3 4 18.9 E 17 28 9 15 1017.4 1017.2 0.0
22/11:00am 33.9 27.9 -11.0 5 18.4 ESE 15 22 8 12 1018.0 1017.8 0.0
22/10:30am 33.0 27.0 -11.6 5 17.9 ESE 15 28 8 15 1018.3 1018.1 0.0
22/10:00am 32.0 25.2 -12.3 5 17.5 ESE 19 30 10 16 1018.7 1018.5 0.0
22/09:30am 30.4 23.5 -13.4 5 16.6 ESE 19 28 10 15 1018.9 1018.7 0.0
22/09:00am 29.3 22.9 -11.9 6 15.9 ESE 17 28 9 15 1018.9 1018.7 0.0
22/08:30am 27.4 21.0 -11.4 7 14.8 SE 17 30 9 16 1018.9 1018.7 0.0
22/08:00am 25.0 20.2 -10.0 9 13.4 SSE 9 17 5 9 1018.8 1018.6 0.0
22/07:30am 22.4 19.2 -7.3 13 11.6 SW 2 7 1 4 1018.4 1018.2 0.0
22/07:00am 19.3 16.3 -4.9 19 9.6 SSW 2 7 1 4 1018.0 1017.8 0.0
22/06:30am 19.5 15.3 -9.6 13 10.5 S 6 7 3 4 1017.5 1017.3 0.0
22/06:00am 22.6 17.4 -10.5 10 12.2 SSE 11 13 6 7 1017.0 1016.8 0.0
22/05:30am 23.1 17.6 -10.1 10 12.4 SSE 13 17 7 9 1016.6 1016.4 0.0
22/05:00am 23.3 17.4 -10.0 10 12.5 SSE 15 20 8 11 1016.0 1015.8 0.0
22/04:43am 22.6 17.8 -6.2 14 11.5 SSE 11 17 6 9 1015.8 1015.6 0.0
22/04:30am 17.4 15.2 5.4 45 5.8 S 6 7 3 4 1015.7 1015.5 0.0
22/04:00am 17.3 15.0 5.9 47 5.6 SW 7 9 4 5 1015.3 1015.1 0.0
22/03:30am 17.7 15.6 6.6 48 5.5 W 7 9 4 5 1015.4 1015.2 0.0
22/03:00am 18.0 16.5 6.8 48 5.6 WSW 4 6 2 3 1015.4 1015.2 0.0
22/02:30am 18.7 16.8 6.5 45 6.1 SW 6 7 3 4 1015.7 1015.5 0.0
22/02:00am 18.9 18.1 6.7 45 6.1 CALM 0 0 0 0 1015.7 1015.5 0.0
22/01:30am 19.8 19.2 7.2 44 6.4 CALM 0 0 0 0 1015.8 1015.6 0.0
22/01:00am 20.2 18.7 6.9 42 6.7 WNW 4 9 2 5 1016.1 1015.9 0.0
22/12:30am 20.5 19.1 5.7 38 7.3 W 2 6 1 3 1016.5 1016.3 0.0
22/12:00am 21.5 18.8 5.4 35 8.0 WSW 9 11 5 6 1016.6 1016.4 0.0
 
Date/Time
CST
Temp
°C
App
Temp
°C
Dew
Point
°C
Rel
Hum
%
Delta-T
°C
Wind Press
QNH
hPa
Press
MSL
hPa
Rain since
9am
mm
Dir  Spd
km/h
Gust
km/h
Spd
kts
Gust
kts
21/11:30pm 22.6 19.3 6.4 35 8.3 SSW 13 19 7 10 1016.6 1016.4 0.0
21/11:00pm 21.8 20.9 6.1 36 7.9 CALM 0 6 0 3 1016.4 1016.2 0.0
21/10:30pm 22.8 21.3 6.6 35 8.3 S 4 7 2 4 1016.3 1016.1 0.0
21/10:00pm 23.0 21.3 5.9 33 8.7 NNW 4 6 2 3 1016.3 1016.1 0.0
21/09:30pm 24.8 22.7 5.6 29 9.8 N 6 7 3 4 1016.1 1015.9 0.0
21/09:00pm 26.0 23.7 5.0 26 10.7 NNE 6 7 3 4 1015.8 1015.6 0.0
21/08:30pm 27.7 25.3 4.1 22 11.9 NE 6 9 3 5 1015.5 1015.3 0.0
21/08:00pm 28.8 25.8 4.3 21 12.5 NE 9 11 5 6 1015.4 1015.2 0.0
21/07:30pm 30.2 26.4 4.0 19 13.4 NNE 13 19 7 10 1015.0 1014.8 0.0
21/07:00pm 30.8 26.5 3.0 17 14.1 NNE 15 24 8 13 1014.4 1014.2 0.0
21/06:30pm 31.7 26.7 3.7 17 14.4 NNE 19 28 10 15 1013.7 1013.5 0.0
21/06:00pm 33.1 27.8 2.1 14 15.7 NNE 19 30 10 16 1013.1 1012.9 0.0
21/05:30pm 35.8 31.5 -5.3 7 18.8 E 9 15 5 8 1012.4 1012.2 0.0
21/05:00pm 36.2 31.1 -5.0 7 19.0 ENE 13 22 7 12 1012.2 1012.0 0.0
21/04:30pm 37.1 32.1 -4.4 7 19.4 ESE 13 17 7 9 1012.1 1011.9 0.0
21/04:00pm 36.7 32.0 -4.7 7 19.2 E 11 17 6 9 1012.0 1011.8 0.0
21/03:30pm 36.7 31.7 -4.7 7 19.2 E 13 22 7 12 1012.1 1011.9 0.0
21/03:00pm 36.4 31.1 -6.9 6 19.4 NE 13 19 7 10 1012.2 1012.0 0.0
21/02:30pm 36.4 31.7 -4.9 7 19.1 E 11 22 6 12 1012.4 1012.2 0.0
21/02:00pm 35.9 31.0 -7.2 6 19.1 SSE 11 20 6 11 1012.8 1012.6 0.0
21/01:30pm 35.6 30.1 -9.8 5 19.2 E 13 24 7 13 1013.4 1013.2 0.0
21/01:00pm 35.3 29.6 -7.7 6 18.8 ESE 15 30 8 16 1013.9 1013.7 0.0
21/12:30pm 35.4 29.5 -9.9 5 19.1 ESE 15 32 8 17 1014.6 1014.4 0.0
21/12:00pm 34.2 28.0 -8.5 6 18.3 E 17 28 9 15 1015.3 1015.1 0.0
21/11:30am 33.7 27.1 -8.8 6 18.0 ESE 19 28 10 15 1015.9 1015.7 0.0
21/11:00am 32.7 26.5 -9.5 6 17.5 ESE 17 26 9 14 1016.3 1016.1 0.0
21/10:30am 32.3 26.8 -9.8 6 17.3 ESE 13 24 7 13 1016.7 1016.5 0.0
21/10:00am 30.7 24.5 -9.0 7 16.3 ESE 17 26 9 14 1017.0 1016.8 0.0
21/09:30am 29.5 22.8 -8.2 8 15.5 SE 20 32 11 17 1017.1 1016.9 0.0
21/09:00am 28.6 22.5 -7.3 9 14.9 SE 17 26 9 14 1017.0 1016.8 0.0
21/08:30am 26.0 21.6 -5.6 12 13.2 SE 9 13 5 7 1017.0 1016.8 0.0
21/08:00am 23.2 18.9 -4.8 15 11.6 SSW 9 13 5 7 1016.7 1016.5 0.0
21/07:30am 19.7 16.5 0.7 28 8.5 SW 7 9 4 5 1016.3 1016.1 0.0
21/07:00am 16.4 14.2 5.1 47 5.4 WSW 6 9 3 5 1016.0 1015.8 0.0
21/06:30am 15.0 12.6 5.2 52 4.6 WSW 7 9 4 5 1015.7 1015.5 0.0
21/06:00am 15.1 13.2 6.7 57 4.1 W 6 7 3 4 1015.3 1015.1 0.0
21/05:30am 14.4 12.6 8.1 66 3.1 WSW 7 9 4 5 1014.9 1014.7 0.0
21/05:00am 14.6 12.2 7.2 61 3.6 W 9 9 5 5 1014.5 1014.3 0.0
21/04:30am 15.7 14.8 6.2 53 4.6 CALM 0 0 0 0 1014.2 1014.0 0.0
21/04:00am 16.2 14.4 7.2 55 4.5 SW 6 9 3 5 1013.9 1013.7 0.0
21/03:30am 16.8 15.0 8.0 56 4.5 WSW 7 9 4 5 1013.8 1013.6 0.0
21/03:00am 17.1 14.2 2.7 38 6.6 SW 7 7 4 4 1014.0 1013.8 0.0
21/02:30am 17.5 16.9 7.5 52 5.0 CALM 0 0 0 0 1014.0 1013.8 0.0
21/02:00am 18.1 15.7 2.4 35 7.2 WSW 4 7 2 4 1014.4 1014.2 0.0
21/01:30am 18.4 14.0 -6.3 18 9.5 SW 9 9 5 5 1014.4 1014.2 0.0
21/01:00am 18.9 16.2 5.7 42 6.5 SW 9 15 5 8 1014.7 1014.5 0.0
21/12:50am 18.9 17.9 5.4 41 6.6 CALM 0 0 0 0 1014.5 1014.3 0.0
21/12:34am 19.2 18.1 4.9 39 6.9 CALM 0 0 0 0 1014.4 1014.2 0.0
21/12:30am 19.3 18.7 7.4 46 6.1 CALM 0 0 0 0 1014.5 1014.3 0.0
21/12:00am 20.0 18.0 4.5 36 7.5 WSW 4 6 2 3 1014.7 1014.5 0.0
 
Date/Time
CST
Temp
°C
App
Temp
°C
Dew
Point
°C
Rel
Hum
%
Delta-T
°C
Wind Press
QNH
hPa
Press
MSL
hPa
Rain since
9am
mm
Dir  Spd
km/h
Gust
km/h
Spd
kts
Gust
kts
20/11:30pm 21.0 18.7 5.8 37 7.6 SSW 7 9 4 5 1014.8 1014.6 0.0
20/11:00pm 21.2 20.1 6.7 39 7.4 WSW 2 7 1 4 1014.7 1014.5 0.0
20/10:30pm 22.5 21.7 6.7 36 8.1 CALM 0 0 0 0 1014.7 1014.5 0.0
20/10:00pm 23.8 23.0 6.6 33 8.9 CALM 0 2 0 1 1014.7 1014.5 0.0
20/09:30pm 24.1 22.0 6.8 33 9.0 NNW 7 9 4 5 1014.3 1014.1 0.0
20/09:00pm 26.0 24.2 5.6 27 10.5 NE 4 9 2 5 1014.0 1013.8 0.0
20/08:30pm 27.1 24.1 6.0 26 11.0 NE 11 15 6 8 1013.8 1013.6 0.0
20/08:00pm 27.6 24.8 5.2 24 11.5 NE 9 15 5 8 1013.3 1013.1 0.0
20/07:30pm 28.6 25.0 4.8 22 12.3 NNE 13 19 7 10 1012.7 1012.5 0.0
20/07:00pm 29.6 26.1 3.6 19 13.2 NNE 11 17 6 9 1012.3 1012.1 0.0
20/06:30pm 30.8 26.3 2.1 16 14.3 NNE 15 22 8 12 1011.8 1011.6 0.0
20/06:00pm 32.1 27.5 1.3 14 15.3 NNE 15 22 8 12 1011.3 1011.1 0.0
20/05:30pm 33.3 28.3 1.2 13 16.0 NNE 17 26 9 14 1010.9 1010.7 0.0
20/05:00pm 34.0 29.3 0.6 12 16.6 NE 15 24 8 13 1010.6 1010.4 0.0
20/04:30pm 35.6 30.5 -2.1 9 18.1 ESE 15 22 8 12 1010.5 1010.3 0.0

Other Formats:

Comma delimited format used in spreadsheet applications
http://www.bom.gov.au/fwo/IDD60801/IDD60801.94239.axf

JavaScript Object Notation format (JSON) in row-major order
http://www.bom.gov.au/fwo/IDD60801/IDD60801.94239.json